Time;durP1;ratioP1;P1;durP2;ratioP2;P2;SDS_P1;SDS_P2;PMS_P1;PMS_P2;Temp;Humidity;BMP_temperature;BMP_pressure;BME280_temperature;BME280_humidity;BME280_pressure;Samples;Min_cycle;Max_cycle;Signal;HPM_P1;HPM_P2
2021/07/24 00:00:27;;;;;;;18.83;15.63;;;;;;;24.18;49.74;96110.84;5091015;28;20205;-70
2021/07/24 00:02:53;;;;;;;17.40;13.73;;;;;;;24.17;49.87;96108.44;5090973;28;20460;-70
2021/07/24 00:05:18;;;;;;;19.50;16.77;;;;;;;24.14;49.86;96103.63;5086077;28;20188;-70
2021/07/24 00:07:44;;;;;;;21.90;15.23;;;;;;;24.05;50.40;96109.50;5091785;28;20569;-71
2021/07/24 00:10:10;;;;;;;20.00;15.57;;;;;;;24.04;50.45;96107.06;5091347;28;20205;-70
2021/07/24 00:12:35;;;;;;;18.13;14.10;;;;;;;24.03;50.44;96095.59;5091630;28;20522;-71
2021/07/24 00:15:01;;;;;;;19.03;13.93;;;;;;;24.04;49.75;96083.00;5091408;28;20208;-70
2021/07/24 00:17:26;;;;;;;18.53;13.93;;;;;;;24.03;50.01;96081.38;5089443;28;20265;-71
2021/07/24 00:19:52;;;;;;;16.13;12.03;;;;;;;24.00;49.87;96082.72;5091382;28;20655;-69
2021/07/24 00:22:17;;;;;;;18.20;13.53;;;;;;;23.98;50.21;96084.88;5089711;28;20304;-70
2021/07/24 00:24:43;;;;;;;20.70;14.67;;;;;;;23.98;50.03;96084.06;5084503;28;20184;-71
2021/07/24 00:27:09;;;;;;;16.47;13.87;;;;;;;23.96;50.20;96081.66;5091403;28;20174;-71
2021/07/24 00:29:35;;;;;;;28.10;14.30;;;;;;;23.93;50.20;96071.47;5090106;28;20292;-70
2021/07/24 00:32:02;;;;;;;16.00;13.23;;;;;;;23.93;50.42;96074.16;5091273;28;20434;-70
2021/07/24 00:34:28;;;;;;;24.63;14.23;;;;;;;23.89;50.32;96065.81;5075697;28;20462;-70
2021/07/24 00:36:55;;;;;;;17.73;14.27;;;;;;;23.88;50.43;96074.13;5091565;28;20412;-70
2021/07/24 00:39:21;;;;;;;22.63;13.60;;;;;;;23.85;50.33;96058.59;5090365;28;22192;-70
2021/07/24 00:41:51;;;;;;;21.03;14.37;;;;;;;23.81;50.55;96062.91;5090943;28;20463;-70
2021/07/24 00:44:21;;;;;;;16.47;13.03;;;;;;;23.75;50.79;96054.84;5088976;28;20350;-70
2021/07/24 00:46:47;;;;;;;18.30;14.10;;;;;;;23.75;51.07;96054.84;5089519;28;20499;-70
2021/07/24 00:49:13;;;;;;;20.10;15.03;;;;;;;23.67;51.57;96060.72;5090766;28;20454;-70
2021/07/24 00:51:44;;;;;;;21.10;14.77;;;;;;;23.62;51.64;96050.00;5090728;28;20416;-70
2021/07/24 00:54:11;;;;;;;17.53;13.90;;;;;;;23.66;51.70;96055.63;5072089;28;20435;-69
2021/07/24 00:56:39;;;;;;;22.87;14.27;;;;;;;23.66;51.62;96059.13;5089696;28;20426;-69
2021/07/24 00:59:05;;;;;;;17.53;14.80;;;;;;;23.62;52.02;96050.00;5090756;28;20849;-71
2021/07/24 01:01:30;;;;;;;17.50;14.07;;;;;;;23.59;51.99;96056.69;5061215;28;20448;-69
2021/07/24 01:03:56;;;;;;;20.00;15.30;;;;;;;23.60;51.97;96057.47;5080092;28;20178;-70
2021/07/24 01:06:22;;;;;;;17.57;14.13;;;;;;;23.57;51.89;96047.31;5089591;28;20536;-70
2021/07/24 01:08:48;;;;;;;23.50;15.17;;;;;;;23.55;52.11;96041.44;5089414;28;20201;-67
2021/07/24 01:11:14;;;;;;;19.50;14.40;;;;;;;23.51;52.11;96035.81;5072265;28;20423;-69
2021/07/24 01:13:40;;;;;;;16.60;14.40;;;;;;;23.50;52.10;96022.72;5089812;28;20428;-69
2021/07/24 01:16:09;;;;;;;16.80;14.40;;;;;;;23.46;52.34;96019.78;5097314;28;20973;-70
2021/07/24 01:18:35;;;;;;;19.83;13.90;;;;;;;23.44;52.25;96022.69;5094953;28;20202;-69
2021/07/24 01:21:06;;;;;;;17.13;14.50;;;;;;;23.41;52.29;96025.09;5092218;28;20447;-69
2021/07/24 01:23:31;;;;;;;17.27;14.20;;;;;;;23.42;52.06;96018.69;5089140;28;20480;-70
2021/07/24 01:25:57;;;;;;;19.23;15.23;;;;;;;23.41;51.91;96023.22;5094491;28;20540;-70
2021/07/24 01:28:31;;;;;;;21.03;13.83;;;;;;;23.33;52.15;96029.06;5094495;28;20178;-70
2021/07/24 01:30:58;;;;;;;18.60;14.07;;;;;;;23.39;51.70;96033.38;5094152;28;20182;-70
2021/07/24 01:33:23;;;;;;;17.37;14.20;;;;;;;23.37;52.25;96032.03;5093722;28;20523;-71
2021/07/24 01:35:50;;;;;;;16.73;13.70;;;;;;;23.32;52.46;96030.13;5089818;28;20510;-70
2021/07/24 01:38:17;;;;;;;15.60;13.37;;;;;;;23.24;52.58;96033.31;5093755;28;20201;-69
2021/07/24 01:40:43;;;;;;;20.63;14.07;;;;;;;23.27;52.49;96032.81;5093511;28;20415;-69
2021/07/24 01:43:09;;;;;;;16.80;12.23;;;;;;;23.13;52.70;96037.78;5092985;28;20412;-70
2021/07/24 01:45:35;;;;;;;16.93;13.40;;;;;;;23.23;52.37;96043.22;5094203;28;20411;-70
2021/07/24 01:48:04;;;;;;;19.43;13.23;;;;;;;23.20;52.15;96042.91;5093157;28;20427;-68
2021/07/24 01:53:14;;;;;;;15.63;12.60;;;;;;;23.21;51.99;96049.88;5094240;28;20474;-71
2021/07/24 01:55:44;;;;;;;15.00;13.37;;;;;;;23.17;51.92;96045.03;5093048;28;20518;-70
2021/07/24 01:58:16;;;;;;;16.83;13.60;;;;;;;23.15;51.85;96052.50;5093316;28;20951;-69
2021/07/24 02:00:47;;;;;;;19.10;14.03;;;;;;;22.90;52.66;96060.41;5092879;28;20441;-70
2021/07/24 02:03:14;;;;;;;15.90;13.73;;;;;;;22.79;52.79;96065.69;5092833;28;20424;-69
2021/07/24 02:05:46;;;;;;;14.97;13.13;;;;;;;22.70;53.15;96072.56;5088242;28;20514;-70
2021/07/24 02:08:17;;;;;;;18.43;12.60;;;;;;;22.76;52.95;96065.38;5093599;28;20466;-69
2021/07/24 02:10:43;;;;;;;18.13;12.60;;;;;;;22.78;52.85;96068.59;5093929;28;20443;-70
2021/07/24 02:13:10;;;;;;;16.47;12.70;;;;;;;22.82;52.67;96078.50;5091498;28;20617;-69
2021/07/24 02:15:37;;;;;;;14.97;12.63;;;;;;;22.86;52.63;96076.94;5093213;28;20185;-69
2021/07/24 02:18:03;;;;;;;18.03;14.13;;;;;;;22.85;52.41;96069.19;5093444;28;20416;-69
2021/07/24 02:20:29;;;;;;;18.23;12.00;;;;;;;22.84;52.24;96063.03;5093719;28;20534;-70
2021/07/24 02:22:55;;;;;;;13.53;11.80;;;;;;;22.96;51.83;96062.03;5088642;28;20901;-70
2021/07/24 02:25:21;;;;;;;17.93;12.30;;;;;;;23.02;51.95;96058.34;5090043;28;20481;-71
2021/07/24 02:27:48;;;;;;;14.67;11.73;;;;;;;23.09;51.58;96058.88;5093430;28;20424;-70
2021/07/24 02:30:14;;;;;;;15.77;12.77;;;;;;;23.15;51.40;96055.19;5093314;28;20205;-70
2021/07/24 02:32:40;;;;;;;15.47;11.80;;;;;;;23.19;51.25;96057.34;5093664;28;20496;-71
2021/07/24 02:35:06;;;;;;;19.17;13.00;;;;;;;23.16;51.31;96064.81;5087126;28;20178;-71
2021/07/24 02:37:32;;;;;;;22.70;12.97;;;;;;;23.18;51.38;96061.88;5093310;28;20487;-69
2021/07/24 02:39:58;;;;;;;14.90;11.40;;;;;;;23.19;51.37;96062.69;5092897;28;20483;-71
2021/07/24 02:42:23;;;;;;;12.87;11.23;;;;;;;23.20;51.10;96062.44;5093289;28;20201;-70
2021/07/24 02:44:49;;;;;;;15.30;11.20;;;;;;;23.24;51.00;96055.53;5091821;28;20186;-68
2021/07/24 02:47:15;;;;;;;13.00;11.00;;;;;;;23.23;50.95;96053.09;5093487;28;20181;-69
2021/07/24 02:49:40;;;;;;;16.40;11.90;;;;;;;23.17;50.85;96063.75;5092953;28;20197;-71
2021/07/24 02:52:06;;;;;;;17.00;12.10;;;;;;;23.22;50.74;96062.19;5092376;28;20196;-71
2021/07/24 02:54:32;;;;;;;16.57;11.53;;;;;;;23.28;50.65;96061.94;5092485;28;20699;-69
2021/07/24 02:56:57;;;;;;;15.90;12.17;;;;;;;23.31;50.08;96056.06;5092707;28;20182;-70
2021/07/24 02:59:23;;;;;;;20.70;11.13;;;;;;;23.26;49.76;96053.38;5092816;28;20565;-70
2021/07/24 03:01:48;;;;;;;16.53;11.73;;;;;;;23.36;49.46;96041.91;5092918;28;20206;-68
2021/07/24 03:04:14;;;;;;;14.60;11.20;;;;;;;23.37;49.30;96037.41;5086749;28;20513;-70
2021/07/24 03:06:40;;;;;;;16.90;12.00;;;;;;;23.39;49.17;96030.72;5092847;28;20519;-70
2021/07/24 03:09:07;;;;;;;15.67;12.80;;;;;;;23.44;48.94;96033.38;5091891;28;20194;-70
2021/07/24 03:11:34;;;;;;;18.37;11.87;;;;;;;23.46;49.12;96028.56;5092016;28;20185;-70
2021/07/24 03:14:00;;;;;;;14.17;11.60;;;;;;;23.46;48.93;96020.56;5094432;28;20426;-70
2021/07/24 03:16:25;;;;;;;12.80;10.80;;;;;;;23.49;48.97;96029.13;5092607;28;20557;-68
2021/07/24 03:18:51;;;;;;;12.10;10.77;;;;;;;23.47;48.61;96027.50;5092595;28;20444;-69
2021/07/24 03:21:18;;;;;;;18.37;10.53;;;;;;;23.49;48.67;96011.22;5085333;28;20210;-69
2021/07/24 03:23:44;;;;;;;16.40;10.90;;;;;;;23.54;48.38;96010.44;5079206;28;20435;-69
2021/07/24 03:26:09;;;;;;;14.13;10.87;;;;;;;23.55;48.59;96009.38;5091968;28;20787;-69
2021/07/24 03:28:35;;;;;;;23.80;11.23;;;;;;;23.56;48.17;96013.66;5089895;28;20208;-70
2021/07/24 03:31:01;;;;;;;14.50;11.30;;;;;;;23.49;48.92;96007.75;5091863;28;20185;-70
2021/07/24 03:33:26;;;;;;;14.07;10.60;;;;;;;23.55;48.93;95996.78;5083407;28;20184;-70
2021/07/24 03:35:52;;;;;;;14.00;11.10;;;;;;;23.55;48.99;96001.34;5091497;28;20226;-70
2021/07/24 03:38:19;;;;;;;14.70;11.50;;;;;;;23.50;49.04;96007.50;5091765;28;20246;-69
2021/07/24 03:40:45;;;;;;;15.33;10.77;;;;;;;23.52;49.08;96001.88;5091418;28;20185;-70
2021/07/24 03:43:11;;;;;;;13.53;11.30;;;;;;;23.52;49.15;96004.53;5091145;28;20424;-68
2021/07/24 03:45:37;;;;;;;15.57;11.40;;;;;;;23.46;49.22;96009.88;5091190;28;20626;-71
2021/07/24 03:48:02;;;;;;;15.27;11.07;;;;;;;23.51;49.16;96000.25;5091227;28;20174;-69
2021/07/24 03:50:28;;;;;;;16.70;11.80;;;;;;;23.53;48.98;96001.59;5092241;28;20201;-70
2021/07/24 03:52:54;;;;;;;20.50;12.50;;;;;;;23.39;49.81;96024.53;5090132;28;20358;-70
2021/07/24 03:55:19;;;;;;;15.90;11.40;;;;;;;23.42;50.01;96021.34;5091474;28;20217;-70
2021/07/24 03:57:45;;;;;;;15.43;12.90;;;;;;;23.40;50.41;96026.16;5084714;28;20189;-71
2021/07/24 04:00:11;;;;;;;17.30;12.57;;;;;;;23.13;51.45;96035.94;5090791;28;20202;-70
2021/07/24 04:02:39;;;;;;;13.20;11.60;;;;;;;23.21;51.37;96023.16;5090798;28;20227;-70
2021/07/24 04:05:05;;;;;;;14.27;11.20;;;;;;;23.29;51.03;96022.66;5090686;28;20420;-69
2021/07/24 04:07:31;;;;;;;14.30;11.73;;;;;;;23.20;50.41;96038.41;5091560;28;20476;-70
2021/07/24 04:09:57;;;;;;;17.80;12.73;;;;;;;23.23;49.97;96048.56;5091544;28;20538;-70
2021/07/24 04:12:22;;;;;;;13.93;11.77;;;;;;;23.40;49.47;96045.69;5091105;28;20177;-69
2021/07/24 04:14:48;;;;;;;15.07;10.73;;;;;;;23.49;49.12;96058.53;5091274;28;20265;-71
2021/07/24 04:17:14;;;;;;;13.93;11.80;;;;;;;23.01;50.34;96065.53;5091101;28;20186;-70
2021/07/24 04:19:39;;;;;;;14.23;10.60;;;;;;;23.20;50.02;96065.13;5090155;28;20201;-70
2021/07/24 04:22:05;;;;;;;13.50;11.50;;;;;;;23.42;49.63;96072.97;5088395;28;20292;-70
2021/07/24 04:24:30;;;;;;;12.93;10.97;;;;;;;23.57;49.12;96058.00;5085371;28;20181;-69
2021/07/24 04:26:56;;;;;;;14.40;11.70;;;;;;;23.68;48.53;96059.66;5091097;28;20260;-70
2021/07/24 04:29:22;;;;;;;13.77;11.47;;;;;;;23.69;48.92;96050.53;5090680;28;20201;-69
2021/07/24 04:31:48;;;;;;;14.20;11.40;;;;;;;23.69;48.84;96045.19;5091028;28;20238;-70
2021/07/24 04:34:13;;;;;;;14.90;12.00;;;;;;;23.58;49.67;96044.41;5090386;28;20416;-69
2021/07/24 04:36:40;;;;;;;16.77;12.10;;;;;;;23.63;49.25;96046.28;5089578;28;20178;-69
2021/07/24 04:39:06;;;;;;;15.13;11.10;;;;;;;23.71;49.17;96063.66;5088850;28;20359;-69
2021/07/24 04:41:32;;;;;;;18.90;11.57;;;;;;;23.71;49.09;96075.16;5091119;28;20451;-69
2021/07/24 04:43:57;;;;;;;15.27;11.80;;;;;;;23.73;48.99;96081.03;5090375;28;20192;-69
2021/07/24 04:46:23;;;;;;;15.80;10.53;;;;;;;23.75;49.14;96094.19;5090636;28;20183;-70
2021/07/24 04:48:48;;;;;;;16.13;11.07;;;;;;;23.77;49.05;96090.16;5090392;28;20262;-69
2021/07/24 04:51:15;;;;;;;13.10;11.33;;;;;;;23.61;49.41;96100.03;5090928;28;20732;-70
2021/07/24 04:53:42;;;;;;;13.80;11.23;;;;;;;23.62;49.69;96092.78;5088827;28;20258;-70
2021/07/24 04:56:08;;;;;;;14.87;10.90;;;;;;;23.69;49.55;96087.97;5089107;28;20432;-70
2021/07/24 04:58:35;;;;;;;13.70;11.23;;;;;;;23.79;49.42;96079.19;5082821;28;20976;-69
2021/07/24 05:01:00;;;;;;;13.80;11.27;;;;;;;23.19;50.88;96087.53;5090598;28;20456;-70
2021/07/24 05:03:26;;;;;;;18.90;11.30;;;;;;;23.42;50.36;96058.78;5090105;28;20423;-71
2021/07/24 05:05:53;;;;;;;17.83;11.50;;;;;;;23.12;51.01;96086.97;5090762;28;20292;-70
2021/07/24 05:08:19;;;;;;;14.10;11.03;;;;;;;23.36;50.36;96092.69;5090579;28;20673;-70
2021/07/24 05:10:44;;;;;;;18.10;11.07;;;;;;;23.70;49.45;96094.94;5088869;28;20432;-70
2021/07/24 05:13:10;;;;;;;13.47;11.10;;;;;;;23.60;49.92;96092.25;5091768;28;20219;-71
2021/07/24 05:15:38;;;;;;;16.70;12.13;;;;;;;23.90;49.04;96106.75;5090128;28;20177;-72
2021/07/24 05:18:08;;;;;;;13.57;11.07;;;;;;;23.71;49.04;96107.25;5090652;28;20182;-69
2021/07/24 05:20:33;;;;;;;17.00;11.70;;;;;;;23.80;48.43;96088.03;5072511;28;20534;-71
2021/07/24 05:22:59;;;;;;;16.07;10.80;;;;;;;23.74;48.68;96090.69;5085719;28;20622;-71
2021/07/24 05:25:25;;;;;;;14.60;11.03;;;;;;;23.76;48.26;96103.78;5089800;28;20188;-71
2021/07/24 05:27:51;;;;;;;15.30;12.00;;;;;;;24.01;47.86;96089.69;5090841;28;20235;-70
2021/07/24 05:30:16;;;;;;;19.87;11.87;;;;;;;24.10;47.66;96103.34;5089951;28;20250;-69
2021/07/24 05:32:42;;;;;;;15.13;11.87;;;;;;;24.33;47.34;96102.00;5084590;28;20174;-70
2021/07/24 05:35:08;;;;;;;12.77;10.93;;;;;;;24.76;46.88;96090.22;5089857;28;20188;-69
2021/07/24 05:37:34;;;;;;;19.37;11.13;;;;;;;24.73;46.42;96096.13;5090232;28;20236;-70
2021/07/24 05:39:59;;;;;;;17.33;11.10;;;;;;;25.18;45.47;96086.38;5090579;28;20540;-70
2021/07/24 05:42:25;;;;;;;16.07;10.27;;;;;;;25.44;45.61;96091.69;5090110;28;20683;-70
2021/07/24 05:44:50;;;;;;;11.60;9.83;;;;;;;25.45;45.87;96114.72;5089819;28;20263;-70
2021/07/24 05:47:16;;;;;;;15.03;10.33;;;;;;;25.60;44.95;96111.97;5090420;28;20230;-69
2021/07/24 05:49:42;;;;;;;20.13;11.30;;;;;;;25.82;44.28;96124.22;5090055;28;20288;-70
2021/07/24 05:52:08;;;;;;;14.90;10.70;;;;;;;25.83;43.90;96136.53;5088675;28;20181;-69
2021/07/24 05:54:35;;;;;;;13.50;10.47;;;;;;;25.18;46.01;96145.34;5090115;28;20250;-69
2021/07/24 05:57:01;;;;;;;17.33;11.13;;;;;;;25.44;46.27;96139.94;5090048;28;20440;-69
2021/07/24 05:59:27;;;;;;;15.73;10.50;;;;;;;25.23;45.96;96144.53;5082631;28;20492;-70
2021/07/24 06:01:52;;;;;;;16.03;10.23;;;;;;;24.84;46.93;96156.66;5093094;28;20206;-69
2021/07/24 06:04:18;;;;;;;11.77;10.20;;;;;;;24.53;47.40;96170.81;5092713;28;20616;-70
2021/07/24 06:06:43;;;;;;;13.20;10.37;;;;;;;24.42;47.41;96173.78;5093993;28;20174;-70
2021/07/24 06:09:09;;;;;;;16.00;10.60;;;;;;;24.36;49.03;96168.41;5093098;28;20198;-70
2021/07/24 06:11:35;;;;;;;14.00;10.97;;;;;;;24.58;48.94;96153.16;5092682;28;20511;-71
2021/07/24 06:14:00;;;;;;;17.27;11.10;;;;;;;24.40;49.02;96149.94;5093046;28;20180;-70
2021/07/24 06:16:26;;;;;;;13.57;11.00;;;;;;;24.02;50.75;96162.72;5093836;28;20174;-70
2021/07/24 06:18:51;;;;;;;17.40;12.07;;;;;;;24.21;50.09;96152.31;5093808;28;20281;-70
2021/07/24 06:21:17;;;;;;;16.63;11.53;;;;;;;24.36;50.20;96165.72;5093625;28;20654;-72
2021/07/24 06:23:44;;;;;;;12.10;10.43;;;;;;;24.52;49.30;96179.13;5087647;28;20231;-70
2021/07/24 06:26:09;;;;;;;13.83;10.57;;;;;;;24.22;50.34;96196.75;5093501;28;20186;-71
2021/07/24 06:28:36;;;;;;;13.33;10.90;;;;;;;24.47;50.03;96208.56;5092341;28;20442;-70
2021/07/24 06:31:03;;;;;;;14.43;11.00;;;;;;;24.15;51.06;96207.72;5092538;28;20220;-69
2021/07/24 06:33:29;;;;;;;12.87;11.03;;;;;;;23.96;51.58;96203.91;5091399;28;20435;-70
2021/07/24 06:35:54;;;;;;;15.33;10.47;;;;;;;24.27;50.88;96206.66;5093198;28;20420;-69
2021/07/24 06:38:20;;;;;;;15.73;11.00;;;;;;;24.89;48.92;96194.16;5092725;28;20194;-69
2021/07/24 06:40:45;;;;;;;13.80;11.27;;;;;;;24.89;48.58;96188.81;5093110;28;20178;-70
2021/07/24 06:43:11;;;;;;;17.27;11.53;;;;;;;24.68;48.69;96177.25;5092857;28;20174;-69
2021/07/24 06:45:37;;;;;;;14.57;11.87;;;;;;;25.17;47.65;96181.25;5092980;28;20259;-67
2021/07/24 06:48:03;;;;;;;14.50;11.53;;;;;;;25.29;46.87;96175.59;5090365;28;20182;-70
2021/07/24 06:50:29;;;;;;;15.50;10.53;;;;;;;25.33;46.38;96181.25;5092069;28;20574;-69
2021/07/24 06:52:59;;;;;;;15.27;10.47;;;;;;;24.98;46.28;96187.19;5092866;28;20412;-69
2021/07/24 06:55:24;;;;;;;11.57;10.30;;;;;;;25.50;44.91;96187.09;5092425;28;20181;-70
2021/07/24 06:57:50;;;;;;;14.20;10.70;;;;;;;25.83;44.21;96178.66;5092491;28;20526;-69
2021/07/24 07:00:16;;;;;;;14.20;11.00;;;;;;;25.94;44.21;96179.41;5092667;28;20209;-68
2021/07/24 07:02:42;;;;;;;13.90;11.27;;;;;;;26.07;44.27;96165.41;5090677;28;20460;-71
2021/07/24 07:05:09;;;;;;;12.20;10.03;;;;;;;26.30;43.84;96160.44;5092133;28;20181;-69
2021/07/24 07:07:34;;;;;;;15.23;11.63;;;;;;;26.18;44.88;96158.09;5091482;28;20558;-70
2021/07/24 07:10:01;;;;;;;13.13;10.20;;;;;;;26.08;45.58;96164.31;5091362;28;20436;-69
2021/07/24 07:12:26;;;;;;;18.43;10.83;;;;;;;26.20;46.21;96166.69;5073461;28;20319;-69
2021/07/24 07:14:52;;;;;;;16.27;12.13;;;;;;;26.21;46.80;96169.06;5092295;28;20435;-69
2021/07/24 07:17:17;;;;;;;15.90;11.20;;;;;;;26.36;46.41;96180.78;5092402;28;20226;-69
2021/07/24 07:19:43;;;;;;;12.90;10.70;;;;;;;26.40;45.17;96195.28;5095277;28;20208;-69
2021/07/24 07:22:09;;;;;;;13.80;10.93;;;;;;;26.37;45.39;96203.88;5092129;28;20209;-68
2021/07/24 07:24:35;;;;;;;13.67;10.50;;;;;;;26.49;45.39;96206.22;5085900;28;20185;-70
2021/07/24 07:27:01;;;;;;;22.33;12.47;;;;;;;26.50;46.14;96214.00;5090297;28;20248;-69
2021/07/24 07:29:27;;;;;;;22.87;11.90;;;;;;;26.49;46.85;96204.34;5092198;28;20447;-69
2021/07/24 07:31:52;;;;;;;15.17;11.57;;;;;;;26.39;47.08;96209.00;5091258;28;20416;-71
2021/07/24 07:34:18;;;;;;;19.33;11.27;;;;;;;26.58;46.51;96209.91;5090671;28;20624;-70
2021/07/24 07:36:44;;;;;;;16.27;11.90;;;;;;;26.65;46.75;96215.78;5092144;28;20235;-69
2021/07/24 07:39:09;;;;;;;16.47;11.90;;;;;;;26.58;47.19;96226.03;5091527;28;20362;-69
2021/07/24 07:41:35;;;;;;;19.63;12.70;;;;;;;26.40;47.62;96245.50;5091802;28;20299;-69
2021/07/24 07:44:01;;;;;;;15.60;11.90;;;;;;;25.92;48.90;96263.69;5089982;28;20268;-69
2021/07/24 07:46:26;;;;;;;13.30;11.10;;;;;;;25.52;50.50;96257.38;5090361;28;20552;-70
2021/07/24 07:48:52;;;;;;;14.57;12.10;;;;;;;25.45;50.88;96254.16;5092268;28;20201;-70
2021/07/24 07:51:17;;;;;;;13.73;11.90;;;;;;;25.75;49.70;96241.72;5092154;28;20553;-69
2021/07/24 07:53:43;;;;;;;16.70;12.03;;;;;;;25.63;49.88;96254.66;5092371;28;20233;-69
2021/07/24 07:56:11;;;;;;;18.17;12.10;;;;;;;25.41;50.44;96258.47;5092141;28;20177;-70
2021/07/24 07:58:37;;;;;;;18.17;12.60;;;;;;;25.64;50.26;96258.94;5092365;28;20184;-69
2021/07/24 08:01:10;;;;;;;19.77;12.07;;;;;;;25.47;50.43;96261.94;5091476;28;21007;-69
2021/07/24 08:03:36;;;;;;;18.63;11.80;;;;;;;25.27;51.24;96263.53;5088535;28;20424;-70
2021/07/24 08:06:02;;;;;;;20.70;13.17;;;;;;;25.56;51.36;96246.88;5090521;28;20483;-70
2021/07/24 08:08:27;;;;;;;13.73;12.20;;;;;;;25.36;51.78;96247.69;5091502;28;20205;-70
2021/07/24 08:10:53;;;;;;;15.27;12.23;;;;;;;25.23;52.12;96228.41;5090242;28;20602;-70
2021/07/24 08:13:19;;;;;;;14.83;11.93;;;;;;;25.37;51.47;96193.00;5092585;28;20239;-69
2021/07/24 08:15:47;;;;;;;15.27;11.60;;;;;;;25.24;52.27;96156.84;5106255;28;20212;-70
2021/07/24 08:18:13;;;;;;;17.30;12.73;;;;;;;25.45;53.38;96136.97;5102355;28;20276;-69
2021/07/24 08:20:41;;;;;;;20.30;13.67;;;;;;;25.09;54.88;96122.84;5090845;28;20492;-69
2021/07/24 08:23:08;;;;;;;14.90;13.30;;;;;;;25.30;54.87;96131.63;5084504;28;20320;-70
2021/07/24 08:25:34;;;;;;;18.50;14.20;;;;;;;25.35;54.33;96133.47;5088737;28;20948;-70
2021/07/24 08:28:01;;;;;;;18.40;13.37;;;;;;;25.54;53.02;96126.47;5091043;28;20416;-69
2021/07/24 08:30:27;;;;;;;18.30;13.83;;;;;;;25.70;53.97;96119.16;5091096;28;20471;-68
2021/07/24 08:32:52;;;;;;;22.47;13.80;;;;;;;25.72;53.12;96103.59;5088243;28;20890;-69
2021/07/24 08:35:18;;;;;;;17.10;12.97;;;;;;;25.55;52.93;96100.47;5090718;28;20180;-69
2021/07/24 08:37:44;;;;;;;20.50;13.30;;;;;;;25.49;53.01;96083.59;5090766;28;20229;-69
2021/07/24 08:40:11;;;;;;;13.93;11.23;;;;;;;25.85;51.17;96063.81;5088322;28;20659;-69
2021/07/24 08:42:39;;;;;;;19.30;12.90;;;;;;;26.07;50.84;96076.81;5089947;28;20612;-69
2021/07/24 08:45:06;;;;;;;19.90;12.53;;;;;;;26.60;49.40;96089.56;5090635;28;20432;-69
2021/07/24 08:47:32;;;;;;;21.03;13.00;;;;;;;26.93;47.70;96094.38;5089797;28;20508;-69
2021/07/24 08:50:02;;;;;;;18.23;12.70;;;;;;;27.12;46.67;96091.75;5090576;28;20443;-68
2021/07/24 08:52:30;;;;;;;20.90;13.07;;;;;;;27.33;46.36;96084.25;5090451;28;20169;-69
2021/07/24 08:54:56;;;;;;;22.40;14.77;;;;;;;27.49;45.81;96092.97;5072558;28;20886;-67
2021/07/24 08:57:25;;;;;;;36.70;21.23;;;;;;;27.44;45.60;96095.69;5083362;28;20412;-69
2021/07/24 08:59:52;;;;;;;18.77;13.97;;;;;;;27.41;45.86;96085.50;5089039;28;20444;-69
2021/07/24 09:02:26;;;;;;;19.03;12.40;;;;;;;27.45;46.57;96089.25;5087956;28;21075;-69
2021/07/24 09:04:54;;;;;;;17.00;13.40;;;;;;;27.37;46.75;96077.19;5072066;28;20506;-70
2021/07/24 09:07:20;;;;;;;16.60;12.40;;;;;;;27.40;46.87;96086.59;5090424;28;20424;-70
2021/07/24 09:09:46;;;;;;;28.83;20.20;;;;;;;27.90;45.18;96091.59;5090460;28;20462;-70
2021/07/24 09:12:13;;;;;;;19.77;13.40;;;;;;;28.05;45.04;96083.31;5090780;28;21015;-70
2021/07/24 09:14:38;;;;;;;17.97;13.40;;;;;;;28.03;45.17;96090.88;5093196;28;20502;-70
2021/07/24 09:17:05;;;;;;;20.47;12.67;;;;;;;28.47;43.92;96113.13;5092033;28;20499;-68
2021/07/24 09:19:33;;;;;;;16.73;12.00;;;;;;;28.55;44.32;96121.59;5068870;28;20635;-71
2021/07/24 09:21:59;;;;;;;18.47;14.47;;;;;;;29.04;43.08;96122.97;5087067;28;20452;-69
2021/07/24 09:24:28;;;;;;;23.60;14.50;;;;;;;28.95;43.65;96130.94;5085406;28;20408;-71
2021/07/24 09:26:53;;;;;;;19.80;12.50;;;;;;;29.28;42.84;96132.75;5090794;28;20182;-69
2021/07/24 09:29:20;;;;;;;18.80;13.63;;;;;;;29.42;42.66;96138.94;5090533;28;20440;-71
2021/07/24 09:31:47;;;;;;;97.50;44.80;;;;;;;29.76;42.00;96133.44;5089349;28;20265;-70
2021/07/24 09:34:15;;;;;;;21.07;12.90;;;;;;;29.39;41.15;96133.38;5088583;28;20426;-70
2021/07/24 09:36:42;;;;;;;25.33;14.87;;;;;;;29.95;40.67;96136.03;5093065;28;20423;-70
2021/07/24 09:39:15;;;;;;;20.03;14.20;;;;;;;30.00;40.11;96134.00;5093729;28;20454;-70
2021/07/24 09:41:45;;;;;;;23.83;11.33;;;;;;;30.46;39.63;96137.56;5094476;28;20497;-69
2021/07/24 09:44:11;;;;;;;18.10;13.77;;;;;;;30.59;39.29;96140.53;5094100;28;20411;-71
2021/07/24 09:46:37;;;;;;;21.13;12.80;;;;;;;30.85;39.38;96126.38;5094204;28;20770;-70
2021/07/24 09:49:15;;;;;;;12.73;11.00;;;;;;;30.63;39.65;96134.19;5094707;28;20934;-69
2021/07/24 09:51:42;;;;;;;15.97;11.53;;;;;;;30.70;40.00;96130.25;5094321;28;20654;-70
2021/07/24 09:54:24;;;;;;;21.90;14.67;;;;;;;30.88;39.73;96120.31;5094312;28;20415;-70
2021/07/24 09:56:50;;;;;;;14.10;11.00;;;;;;;31.21;39.07;96118.09;5094042;28;20418;-71
2021/07/24 09:59:15;;;;;;;14.10;10.53;;;;;;;31.32;37.69;96107.81;5094053;28;21068;-67
2021/07/24 10:01:43;;;;;;;15.47;11.20;;;;;;;31.31;38.20;96105.44;5097392;28;20285;-69
2021/07/24 10:04:10;;;;;;;15.57;12.00;;;;;;;31.41;38.28;96102.44;5092707;28;20173;-69
2021/07/24 10:06:38;;;;;;;14.70;11.33;;;;;;;31.47;37.34;96105.78;5094039;28;20471;-70
2021/07/24 10:09:04;;;;;;;16.73;11.67;;;;;;;30.86;39.17;96122.56;5091123;28;20772;-68
2021/07/24 10:11:29;;;;;;;13.30;10.97;;;;;;;31.25;38.22;96124.50;5092931;28;20530;-69
2021/07/24 10:13:56;;;;;;;13.67;10.50;;;;;;;31.44;37.62;96125.34;5093278;28;20257;-69
2021/07/24 10:16:24;;;;;;;16.00;9.00;;;;;;;31.52;37.31;96127.28;5093527;28;20193;-69
2021/07/24 10:18:50;;;;;;;10.53;8.30;;;;;;;31.41;36.44;96115.97;5091569;28;20535;-70
2021/07/24 10:21:16;;;;;;;11.43;8.07;;;;;;;31.47;35.19;96113.91;5092913;28;20712;-68
2021/07/24 10:23:41;;;;;;;12.10;8.17;;;;;;;31.96;34.27;96103.00;5075888;28;20451;-69
2021/07/24 10:26:25;;;;;;;12.90;8.27;;;;;;;32.57;33.10;96097.56;5084344;28;20190;-66
2021/07/24 10:29:08;;;;;;;10.93;7.73;;;;;;;33.01;32.19;96093.97;5087035;28;20282;-67
2021/07/24 10:31:52;;;;;;;9.63;7.63;;;;;;;33.10;31.93;96094.72;5072297;28;20411;-67
2021/07/24 10:34:22;;;;;;;10.23;7.07;;;;;;;32.97;31.22;96093.78;5091635;28;20431;-67
2021/07/24 10:36:47;;;;;;;13.40;7.53;;;;;;;32.70;32.28;96095.78;5085858;28;20475;-67
2021/07/24 10:39:15;;;;;;;10.83;7.57;;;;;;;32.37;31.96;96096.31;5085941;28;20524;-67
2021/07/24 10:41:48;;;;;;;17.50;9.70;;;;;;;32.41;32.64;96091.88;5092082;28;20208;-68
2021/07/24 10:44:17;;;;;;;10.53;7.33;;;;;;;32.43;32.83;96094.25;5096021;28;20510;-70
2021/07/24 10:46:43;;;;;;;10.07;6.87;;;;;;;32.49;31.69;96079.41;5095111;28;20410;-68
2021/07/24 10:49:50;;;;;;;11.80;6.43;;;;;;;32.30;30.92;96083.25;5096771;28;20462;-67
2021/07/24 10:52:16;;;;;;;9.93;6.90;;;;;;;32.45;31.64;96086.59;5095532;28;20420;-67
2021/07/24 10:55:00;;;;;;;8.37;6.37;;;;;;;32.82;31.16;96099.78;5095436;28;20918;-67
2021/07/24 10:57:55;;;;;;;8.53;6.27;;;;;;;32.41;31.72;96099.19;5096016;28;20815;-68
2021/07/24 11:00:20;;;;;;;11.83;6.53;;;;;;;32.91;30.89;96104.03;5092205;28;20440;-66
2021/07/24 11:02:48;;;;;;;13.13;5.97;;;;;;;32.78;30.25;96100.38;5087556;28;20454;-67
2021/07/24 11:05:24;;;;;;;8.03;6.50;;;;;;;32.12;31.07;96095.22;5090768;28;20772;-67
2021/07/24 11:07:50;;;;;;;10.33;5.87;;;;;;;32.30;31.29;96102.22;5065603;28;20860;-66
2021/07/24 11:10:15;;;;;;;8.70;5.80;;;;;;;32.30;31.37;96102.22;5090445;28;20535;-66
2021/07/24 11:12:41;;;;;;;11.40;6.17;;;;;;;32.45;31.34;96097.44;5090276;28;20521;-66
2021/07/24 11:15:10;;;;;;;10.77;5.73;;;;;;;32.27;31.98;96097.44;5090134;28;20212;-65
2021/07/24 11:17:36;;;;;;;7.80;6.20;;;;;;;31.27;32.65;96107.94;5090651;28;20792;-66
2021/07/24 11:20:04;;;;;;;8.00;6.40;;;;;;;31.46;32.77;96113.09;5072753;28;20438;-66